04:16
Airports
History
Links
Donate
Help keep this website running!
PayPal
Bitcoin
Information on this page is community maintained and may be outdated or inaccurate and is intended for reference only or PC simulator navigating!
Always use approved charts for navigating.
CYRJ
ROBERVAL
ROBERVAL (CYRJ)
Roberval, Québec, Canada
(U)
Lat/Lng:48° 31' 12.01" N / 72° 15' 56" W
48.520002 / -72.265556
Elevation:586'ft 179mMSL
ID / ICAO:CYRJ
Runways:1
Longest:(16-34) 1,545.0m 5,069ft Asphalt
Distance To
Airport ID:
Airport Radio Frequencies
Tower: 122.2
Nearby VORs <50NM
Nearby NDBs
METARUpdated 03-28-17 04:00 GMT
Altimeter: 29.93
Visibility: 2.0 statute miles
Wind: 6 knots (100°)
Temp: -4°c 25°f
Humidity: 92.7%

METAR: CYRJ 280400Z 10006KT 2SM -SN OVC003 M04/M05 A2993 RMK SN6SF2 /S01 / SLP147

(Powered by phpweather)
Runway 16 / 34
Dimensions:1545 x 45.7m 5069' x 150'ft
Surface:Asphalt
Edge Lights:Medium intensity
Runway 16 [A]Runway 34 [B]
Heading:142°TH 322°TH
Lat:
Lng:
48° 31' 32"N
72° 16' 19"W
48° 30' 52.01"N
72° 15' 33"W
ALS:MALSMALS
TDZ:Yes, lighted
Google Map
Nearby Airports
(U) DOLBEAU ST FELICIEN 18.5 NM
CYDO NNW 344°
(U) ALMA 28.6 NM
CYTF E 91°
(C) ST HONORE 55.6 NM
CYRC E 89°
(C) BAGOTVILLE 59.7 NM
CYBG (WX) ESE 102°
(U) LA TUQUE 80.4 NM
CYLQ SSW 197°
(U) CHARLEVOIX 113.8 NM
CYML SE 124°
(C) Quebec/jean Lesage Intl 126.2 NM
CYQB (WX) SSE 161°
VFR Chart
Flight Planning at SkyVector.com